Time;durP1;ratioP1;P1;durP2;ratioP2;P2;SDS_P1;SDS_P2;PMS_P1;PMS_P2;Temp;Humidity;BMP_temperature;BMP_pressure;BME280_temperature;BME280_humidity;BME280_pressure;Samples;Min_cycle;Max_cycle;Signal;HPM_P1;HPM_P2
2021/08/07 00:00:16;;;;;;;4.78;1.98;;;19.80;99.90;;;;;;6307526;22;20010;-75
2021/08/07 00:02:41;;;;;;;5.57;2.35;;;19.60;99.90;;;;;;6305866;22;19999;-75
2021/08/07 00:05:07;;;;;;;3.55;2.00;;;19.50;99.90;;;;;;6306386;22;20082;-75
2021/08/07 00:07:34;;;;;;;4.82;2.00;;;19.50;99.90;;;;;;6305008;22;20004;-75
2021/08/07 00:10:01;;;;;;;4.65;2.50;;;19.40;99.90;;;;;;6305058;22;20003;-75
2021/08/07 00:12:26;;;;;;;9.35;3.40;;;19.50;99.90;;;;;;6304849;22;20086;-75
2021/08/07 00:14:52;;;;;;;5.32;2.08;;;19.60;99.90;;;;;;6305195;22;20027;-76
2021/08/07 00:17:18;;;;;;;6.20;2.67;;;19.60;99.90;;;;;;6305186;22;20380;-75
2021/08/07 00:19:43;;;;;;;4.45;2.08;;;19.60;99.90;;;;;;6305243;22;20031;-75
2021/08/07 00:22:09;;;;;;;3.70;2.22;;;19.60;99.90;;;;;;6307615;22;19999;-75
2021/08/07 00:24:35;;;;;;;5.82;2.00;;;19.70;99.90;;;;;;6307119;22;20022;-75
2021/08/07 00:27:00;;;;;;;8.10;3.20;;;19.70;99.90;;;;;;6307723;22;20030;-75
2021/08/07 00:29:26;;;;;;;4.30;2.35;;;19.70;99.90;;;;;;6307288;22;20003;-75
2021/08/07 00:31:52;;;;;;;4.82;2.35;;;19.50;99.90;;;;;;6307458;22;19999;-75
2021/08/07 00:34:17;;;;;;;8.07;2.83;;;19.30;99.90;;;;;;6307487;22;20003;-75
2021/08/07 00:36:43;;;;;;;5.20;2.45;;;19.30;99.90;;;;;;6307370;22;20065;-75
2021/08/07 00:39:09;;;;;;;5.32;2.60;;;19.40;99.90;;;;;;6307331;22;20463;-75
2021/08/07 00:41:34;;;;;;;3.55;2.28;;;19.30;99.90;;;;;;6307293;22;20003;-75
2021/08/07 00:44:00;;;;;;;5.47;2.55;;;19.40;99.90;;;;;;6307317;22;20011;-75
2021/08/07 00:46:25;;;;;;;3.95;2.13;;;19.50;99.90;;;;;;6307400;22;20003;-75
2021/08/07 00:48:52;;;;;;;5.90;2.40;;;19.40;99.90;;;;;;6307080;22;20000;-75
2021/08/07 00:51:18;;;;;;;6.35;2.63;;;19.50;99.90;;;;;;6307313;22;20079;-75
2021/08/07 00:53:45;;;;;;;5.20;2.40;;;19.40;99.90;;;;;;6306985;22;20030;-75
2021/08/07 00:56:11;;;;;;;3.78;2.47;;;19.40;99.90;;;;;;6307348;22;20052;-75
2021/08/07 00:58:36;;;;;;;6.95;2.78;;;19.40;99.90;;;;;;6306349;22;20070;-75
2021/08/07 01:01:09;;;;;;;4.75;2.25;;;19.30;99.90;;;;;;6307318;22;20010;-75
2021/08/07 01:03:47;;;;;;;3.47;2.15;;;19.40;99.90;;;;;;6306969;22;20074;-75
2021/08/07 01:06:30;;;;;;;10.15;2.83;;;19.50;99.90;;;;;;6307392;22;19999;-75
2021/08/07 01:09:08;;;;;;;5.82;2.83;;;19.50;99.90;;;;;;6306725;22;20003;-76
2021/08/07 01:12:13;;;;;;;5.82;3.00;;;19.50;99.90;;;;;;6307039;22;20325;-75
2021/08/07 01:14:43;;;;;;;4.80;2.63;;;19.40;99.90;;;;;;6306657;22;19999;-75
2021/08/07 01:17:14;;;;;;;4.90;2.33;;;19.30;99.90;;;;;;6306318;22;20325;-75
2021/08/07 01:19:56;;;;;;;4.40;1.90;;;19.40;99.90;;;;;;6306524;22;20057;-75
2021/08/07 01:22:27;;;;;;;4.03;2.17;;;19.50;99.90;;;;;;6306768;22;20330;-75
2021/08/07 01:25:04;;;;;;;6.53;2.58;;;19.50;99.90;;;;;;6306673;22;20088;-76
2021/08/07 01:27:38;;;;;;;5.57;2.78;;;19.40;99.90;;;;;;6306478;22;20445;-75
2021/08/07 01:30:08;;;;;;;5.43;2.42;;;19.40;99.90;;;;;;6306828;22;20074;-75
2021/08/07 01:32:36;;;;;;;4.10;2.67;;;19.40;99.90;;;;;;6306689;22;20311;-75
2021/08/07 01:35:03;;;;;;;6.50;3.05;;;19.30;99.90;;;;;;6306896;22;20003;-75
2021/08/07 01:37:29;;;;;;;5.68;3.13;;;19.40;99.90;;;;;;6306926;22;20006;-75
2021/08/07 01:39:56;;;;;;;7.22;2.85;;;19.30;99.90;;;;;;6306734;22;20003;-75
2021/08/07 01:42:26;;;;;;;7.43;2.75;;;19.20;99.90;;;;;;6306890;22;20003;-75
2021/08/07 01:44:53;;;;;;;6.68;2.25;;;19.20;99.90;;;;;;6306787;22;20082;-75
2021/08/07 01:47:27;;;;;;;4.43;2.63;;;19.20;99.90;;;;;;6306826;22;20006;-75
2021/08/07 01:50:14;;;;;;;4.35;2.40;;;19.30;99.90;;;;;;6306470;22;20052;-75
2021/08/07 01:52:44;;;;;;;9.77;2.60;;;19.30;99.90;;;;;;6306479;22;20034;-75
2021/08/07 01:55:20;;;;;;;4.45;2.63;;;19.20;99.90;;;;;;6306613;22;20007;-74
2021/08/07 01:57:54;;;;;;;6.07;2.53;;;19.30;99.90;;;;;;6306704;22;20066;-75
2021/08/07 02:00:22;;;;;;;8.60;3.78;;;19.10;99.90;;;;;;6306471;22;20010;-75
2021/08/07 02:02:48;;;;;;;6.80;2.95;;;19.00;99.90;;;;;;6306406;22;20333;-75
2021/08/07 02:05:18;;;;;;;5.40;2.22;;;19.10;99.90;;;;;;6306309;22;20011;-75
2021/08/07 02:07:47;;;;;;;4.88;2.65;;;19.00;99.90;;;;;;6306714;22;20003;-75
2021/08/07 02:10:13;;;;;;;6.32;2.92;;;19.10;99.90;;;;;;6306498;22;20006;-75
2021/08/07 02:12:39;;;;;;;6.70;3.40;;;19.10;99.90;;;;;;6306260;22;20031;-75
2021/08/07 02:15:05;;;;;;;7.45;3.63;;;19.00;99.90;;;;;;6306752;22;20333;-75
2021/08/07 02:17:31;;;;;;;5.40;2.90;;;19.00;99.90;;;;;;6306299;22;20038;-75
2021/08/07 02:19:57;;;;;;;5.85;2.70;;;18.90;99.90;;;;;;6306062;22;20003;-75
2021/08/07 02:22:23;;;;;;;7.40;3.30;;;18.90;99.90;;;;;;6305900;22;20056;-76
2021/08/07 02:24:49;;;;;;;7.22;3.15;;;18.90;99.90;;;;;;6305621;22;20012;-75
2021/08/07 02:27:14;;;;;;;8.02;3.05;;;19.00;99.90;;;;;;6306092;22;20003;-75
2021/08/07 02:29:41;;;;;;;7.20;3.78;;;19.10;99.90;;;;;;6306190;22;19999;-75
2021/08/07 02:32:08;;;;;;;5.55;3.03;;;19.10;99.90;;;;;;6306285;22;20061;-75
2021/08/07 02:34:35;;;;;;;5.00;2.80;;;19.10;99.90;;;;;;6278213;22;20330;-76
2021/08/07 02:37:02;;;;;;;5.90;3.30;;;19.10;99.90;;;;;;6306232;22;20049;-74
2021/08/07 02:39:28;;;;;;;7.55;3.20;;;19.00;99.90;;;;;;6306147;22;20010;-74
2021/08/07 02:41:55;;;;;;;6.68;3.13;;;19.00;99.90;;;;;;6306362;22;20004;-76
2021/08/07 02:44:21;;;;;;;6.90;3.05;;;19.00;99.90;;;;;;6306083;22;20498;-75
2021/08/07 02:46:48;;;;;;;4.90;2.97;;;19.10;99.90;;;;;;6306155;22;20000;-75
2021/08/07 02:49:13;;;;;;;6.18;3.05;;;19.10;99.90;;;;;;6306034;22;20023;-75
2021/08/07 02:51:40;;;;;;;7.10;3.22;;;18.90;99.90;;;;;;6305753;22;19999;-75
2021/08/07 02:54:06;;;;;;;5.35;2.38;;;19.10;99.90;;;;;;6305820;22;20372;-75
2021/08/07 02:56:32;;;;;;;4.47;2.42;;;19.20;99.90;;;;;;6305963;22;20468;-75
2021/08/07 02:58:58;;;;;;;6.18;2.80;;;19.20;99.90;;;;;;6305981;22;20303;-75
2021/08/07 03:01:23;;;;;;;4.53;2.80;;;19.10;99.90;;;;;;6305515;22;20003;-75
2021/08/07 03:03:49;;;;;;;4.57;2.38;;;19.00;99.90;;;;;;6296976;22;20007;-75
2021/08/07 03:06:15;;;;;;;4.45;2.80;;;18.90;99.90;;;;;;6296876;22;20007;-75
2021/08/07 03:08:40;;;;;;;6.45;2.30;;;18.80;99.90;;;;;;6296600;22;20007;-75
2021/08/07 03:11:06;;;;;;;5.47;2.90;;;18.80;99.90;;;;;;6296792;22;20029;-74
2021/08/07 03:13:32;;;;;;;4.97;2.50;;;18.80;99.90;;;;;;6296784;22;20003;-74
2021/08/07 03:15:58;;;;;;;4.57;2.50;;;18.80;99.90;;;;;;6296148;22;20029;-75
2021/08/07 03:18:23;;;;;;;7.15;3.35;;;18.70;99.90;;;;;;6296334;22;20031;-75
2021/08/07 03:20:56;;;;;;;6.75;2.90;;;18.80;99.90;;;;;;6296517;22;20006;-75
2021/08/07 03:23:22;;;;;;;9.05;2.97;;;18.80;99.90;;;;;;6295882;22;20011;-75
2021/08/07 03:25:48;;;;;;;5.07;3.13;;;18.90;99.90;;;;;;6295879;22;20015;-75
2021/08/07 03:28:13;;;;;;;6.78;3.10;;;18.90;99.90;;;;;;6296479;22;20014;-75
2021/08/07 03:30:39;;;;;;;6.18;3.47;;;18.70;99.90;;;;;;6296283;22;20827;-75
2021/08/07 03:33:05;;;;;;;4.90;2.60;;;18.80;99.90;;;;;;6296295;22;19999;-75
2021/08/07 03:35:30;;;;;;;7.63;2.97;;;18.80;99.90;;;;;;6294738;22;20003;-75
2021/08/07 03:37:56;;;;;;;8.32;4.38;;;18.80;99.90;;;;;;6294522;22;20347;-75
2021/08/07 03:40:21;;;;;;;7.32;3.03;;;18.90;99.90;;;;;;6294223;22;20025;-74
2021/08/07 03:42:47;;;;;;;6.00;3.50;;;18.90;99.90;;;;;;6294129;22;20299;-74
2021/08/07 03:45:13;;;;;;;7.97;3.20;;;18.80;99.90;;;;;;6294522;22;20012;-75
2021/08/07 03:47:44;;;;;;;5.75;3.33;;;19.00;99.90;;;;;;6293442;22;19999;-75
2021/08/07 03:50:10;;;;;;;5.15;2.70;;;18.90;99.90;;;;;;6294705;22;20004;-75
2021/08/07 03:52:35;;;;;;;9.52;3.00;;;18.80;99.90;;;;;;6294677;22;20010;-75
2021/08/07 03:55:01;;;;;;;8.77;3.17;;;18.80;99.90;;;;;;6295747;22;20011;-74
2021/08/07 03:57:27;;;;;;;7.70;2.95;;;19.10;99.90;;;;;;6269260;22;20007;-75
2021/08/07 03:59:52;;;;;;;7.55;3.90;;;19.00;99.90;;;;;;6296566;22;20014;-75
2021/08/07 04:02:18;;;;;;;6.35;3.05;;;18.90;99.90;;;;;;6296282;22;20030;-75
2021/08/07 04:04:43;;;;;;;8.07;3.55;;;18.90;99.90;;;;;;6296050;22;20016;-75
2021/08/07 04:07:09;;;;;;;8.77;3.03;;;18.90;99.90;;;;;;6296218;22;20117;-75
2021/08/07 04:09:35;;;;;;;7.65;2.90;;;18.90;99.90;;;;;;6296587;22;20322;-75
2021/08/07 04:12:00;;;;;;;6.72;4.15;;;19.00;99.90;;;;;;6296531;22;19999;-75
2021/08/07 04:14:26;;;;;;;6.38;3.55;;;19.00;99.90;;;;;;6295742;22;20007;-75
2021/08/07 04:16:52;;;;;;;6.50;3.30;;;19.20;99.90;;;;;;6295886;22;20009;-74
2021/08/07 04:19:17;;;;;;;5.15;3.15;;;19.20;99.90;;;;;;6296097;22;20035;-75
2021/08/07 04:21:43;;;;;;;7.72;3.17;;;19.10;99.90;;;;;;6295809;22;20003;-75
2021/08/07 04:24:09;;;;;;;6.18;3.38;;;19.10;99.90;;;;;;6295438;22;20011;-75
2021/08/07 04:26:34;;;;;;;8.20;3.97;;;19.10;99.90;;;;;;6296149;22;20007;-75
2021/08/07 04:29:00;;;;;;;7.32;3.78;;;19.10;99.90;;;;;;6295747;22;20000;-75
2021/08/07 04:31:26;;;;;;;7.13;3.55;;;19.20;99.90;;;;;;6296232;22;20003;-75
2021/08/07 04:33:51;;;;;;;5.65;3.83;;;19.10;99.90;;;;;;6296800;22;19999;-75
2021/08/07 04:36:17;;;;;;;5.43;3.50;;;19.00;99.90;;;;;;6296702;22;20011;-75
2021/08/07 04:38:43;;;;;;;7.25;3.83;;;19.00;99.90;;;;;;6297596;22;20013;-75
2021/08/07 04:41:08;;;;;;;6.10;3.28;;;19.10;99.90;;;;;;6270782;22;20034;-75
2021/08/07 04:43:34;;;;;;;6.63;3.33;;;19.10;99.90;;;;;;6298033;22;20011;-75
2021/08/07 04:46:00;;;;;;;6.10;3.50;;;19.10;99.90;;;;;;6297913;22;20072;-75
2021/08/07 04:48:26;;;;;;;4.82;3.47;;;19.00;99.90;;;;;;6297559;22;20031;-75
2021/08/07 04:50:51;;;;;;;7.72;3.25;;;18.90;99.90;;;;;;6297476;22;20453;-75
2021/08/07 04:53:17;;;;;;;4.13;3.08;;;18.90;99.90;;;;;;6270259;22;20447;-75
2021/08/07 04:55:43;;;;;;;6.15;3.20;;;19.00;99.90;;;;;;6297700;22;20538;-75
2021/08/07 04:58:10;;;;;;;6.20;3.88;;;19.10;99.90;;;;;;6297656;22;20003;-74
2021/08/07 05:00:36;;;;;;;6.72;3.97;;;19.10;99.90;;;;;;6297704;22;20007;-75
2021/08/07 05:03:02;;;;;;;8.98;3.83;;;19.10;99.90;;;;;;6297944;22;20009;-75
2021/08/07 05:05:27;;;;;;;5.68;3.38;;;19.10;99.90;;;;;;6297605;22;20046;-75
2021/08/07 05:07:53;;;;;;;5.72;3.50;;;19.10;99.90;;;;;;6269566;22;20426;-75
2021/08/07 05:10:19;;;;;;;8.52;4.18;;;19.20;99.90;;;;;;6297815;22;20022;-75
2021/08/07 05:12:44;;;;;;;5.00;3.22;;;19.20;99.90;;;;;;6297811;22;20030;-75
2021/08/07 05:15:11;;;;;;;4.65;3.10;;;19.10;99.90;;;;;;6297939;22;20049;-75
2021/08/07 05:17:36;;;;;;;5.90;3.22;;;19.10;99.90;;;;;;6297141;22;20086;-75
2021/08/07 05:20:03;;;;;;;7.78;3.00;;;19.20;99.90;;;;;;6297338;22;20477;-74
2021/08/07 05:22:29;;;;;;;6.88;3.30;;;19.30;99.90;;;;;;6297542;22;20003;-74
2021/08/07 05:24:54;;;;;;;6.05;4.05;;;19.40;99.90;;;;;;6297687;22;20018;-75
2021/08/07 05:27:20;;;;;;;6.93;3.13;;;19.40;99.90;;;;;;6297271;22;20003;-74
2021/08/07 05:29:45;;;;;;;5.22;3.35;;;19.40;99.90;;;;;;6297070;22;20027;-75
2021/08/07 05:32:11;;;;;;;6.97;2.83;;;19.50;99.90;;;;;;6298028;22;20000;-74
2021/08/07 05:34:37;;;;;;;8.07;3.92;;;19.50;99.90;;;;;;6297250;22;20407;-74
2021/08/07 05:37:02;;;;;;;6.85;3.90;;;19.60;99.90;;;;;;6297876;22;19999;-74
2021/08/07 05:39:28;;;;;;;5.50;3.90;;;19.60;99.90;;;;;;6297031;22;20003;-75
2021/08/07 05:41:54;;;;;;;9.30;4.00;;;19.60;99.90;;;;;;6297045;22;20026;-75
2021/08/07 05:44:20;;;;;;;5.53;3.42;;;19.60;99.90;;;;;;6297686;22;20047;-75
2021/08/07 05:46:45;;;;;;;6.25;3.60;;;19.60;99.90;;;;;;6297341;22;20584;-76
2021/08/07 05:49:11;;;;;;;4.93;3.47;;;19.60;99.90;;;;;;6296328;22;20088;-75
2021/08/07 05:51:37;;;;;;;6.10;3.72;;;19.60;99.90;;;;;;6297796;22;20479;-75
2021/08/07 05:54:03;;;;;;;7.85;3.70;;;19.70;99.90;;;;;;6297797;22;20034;-75
2021/08/07 05:56:29;;;;;;;6.40;3.35;;;19.80;99.90;;;;;;6296953;22;20010;-75
2021/08/07 05:58:54;;;;;;;4.97;3.30;;;19.80;99.90;;;;;;6297139;22;20007;-75
2021/08/07 06:01:20;;;;;;;6.65;3.63;;;19.80;99.90;;;;;;6297670;22;20867;-75
2021/08/07 06:03:45;;;;;;;6.85;3.75;;;19.80;99.90;;;;;;6296605;22;20456;-75
2021/08/07 06:06:11;;;;;;;5.55;3.60;;;19.90;99.90;;;;;;6297679;22;20418;-75
2021/08/07 06:08:37;;;;;;;6.68;3.80;;;19.90;99.90;;;;;;6296665;22;20499;-75
2021/08/07 06:11:03;;;;;;;7.70;3.55;;;19.90;99.90;;;;;;6297651;22;20017;-75
2021/08/07 06:13:29;;;;;;;9.90;3.90;;;19.90;99.90;;;;;;6297286;22;20003;-75
2021/08/07 06:15:54;;;;;;;5.75;3.55;;;19.80;99.90;;;;;;6297000;22;20018;-74
2021/08/07 06:18:20;;;;;;;6.80;3.38;;;19.90;99.90;;;;;;6296824;22;20003;-75
2021/08/07 06:20:46;;;;;;;6.00;3.55;;;20.00;99.90;;;;;;6296758;22;20486;-75
2021/08/07 06:23:12;;;;;;;7.78;3.95;;;20.10;99.90;;;;;;6296600;22;20026;-75
2021/08/07 06:25:38;;;;;;;6.93;3.78;;;20.10;99.90;;;;;;6296468;22;20116;-74
2021/08/07 06:28:04;;;;;;;7.80;3.97;;;20.20;99.90;;;;;;6296900;22;20014;-75
2021/08/07 06:30:31;;;;;;;7.80;3.75;;;20.40;99.90;;;;;;6296632;22;20103;-75
2021/08/07 06:32:57;;;;;;;14.98;4.20;;;20.50;99.90;;;;;;6296635;22;20007;-75
2021/08/07 06:35:23;;;;;;;5.80;3.83;;;20.60;99.90;;;;;;6296713;22;20013;-75
2021/08/07 06:37:50;;;;;;;6.50;3.63;;;20.70;99.90;;;;;;6296670;22;20590;-74
2021/08/07 06:40:16;;;;;;;7.45;3.58;;;20.80;99.90;;;;;;6296694;22;20080;-75
2021/08/07 06:42:43;;;;;;;10.18;4.13;;;20.80;99.90;;;;;;6296595;22;20078;-75
2021/08/07 06:45:10;;;;;;;10.80;4.03;;;20.80;99.90;;;;;;6296640;22;20448;-75
2021/08/07 06:47:35;;;;;;;5.93;3.55;;;20.90;99.90;;;;;;6296751;22;20006;-75
2021/08/07 06:50:03;;;;;;;6.90;3.50;;;20.80;99.90;;;;;;6296376;22;19999;-75
2021/08/07 06:52:28;;;;;;;7.60;3.53;;;20.80;99.90;;;;;;6296438;22;20022;-76
2021/08/07 06:54:54;;;;;;;5.15;3.58;;;20.80;99.90;;;;;;6297277;22;20003;-75
2021/08/07 06:57:21;;;;;;;5.22;3.05;;;20.80;99.90;;;;;;6296381;22;20352;-74
2021/08/07 06:59:47;;;;;;;5.95;3.80;;;20.80;99.90;;;;;;6296461;22;20007;-75
2021/08/07 07:02:13;;;;;;;7.15;4.03;;;20.80;99.90;;;;;;6296768;22;19995;-75
2021/08/07 07:04:39;;;;;;;6.95;3.22;;;20.80;99.90;;;;;;6296650;22;20003;-75
2021/08/07 07:07:05;;;;;;;7.78;4.40;;;20.90;99.90;;;;;;6296769;22;20003;-75
2021/08/07 07:09:31;;;;;;;5.93;3.38;;;21.00;99.90;;;;;;6296447;22;20003;-76
2021/08/07 07:11:57;;;;;;;7.68;4.20;;;21.00;99.90;;;;;;6296422;22;20009;-74
2021/08/07 07:14:23;;;;;;;5.82;3.70;;;21.20;99.90;;;;;;6297045;22;20031;-74
2021/08/07 07:16:49;;;;;;;8.07;3.58;;;21.50;99.90;;;;;;6297012;22;20364;-75
2021/08/07 07:19:15;;;;;;;8.38;3.65;;;22.00;99.90;;;;;;6268786;22;20031;-75
2021/08/07 07:21:41;;;;;;;4.68;3.45;;;22.40;99.90;;;;;;6268922;22;20014;-75
2021/08/07 07:24:07;;;;;;;6.20;2.97;;;22.20;99.90;;;;;;6295870;22;20103;-74
2021/08/07 07:26:34;;;;;;;6.85;3.17;;;22.10;99.90;;;;;;6296284;22;20026;-75
2021/08/07 07:29:00;;;;;;;5.55;3.40;;;21.90;99.90;;;;;;6295973;22;20006;-75
2021/08/07 07:31:26;;;;;;;5.72;3.58;;;21.80;99.90;;;;;;6295273;22;19999;-74
2021/08/07 07:33:52;;;;;;;7.55;3.72;;;21.70;99.90;;;;;;6296300;22;20611;-73
2021/08/07 07:36:18;;;;;;;8.15;4.03;;;21.50;99.90;;;;;;6305767;22;20007;-73
2021/08/07 07:38:44;;;;;;;6.55;3.67;;;21.50;99.90;;;;;;6302858;22;20003;-74
2021/08/07 07:41:10;;;;;;;6.53;3.65;;;21.50;99.90;;;;;;6295999;22;20004;-74
2021/08/07 07:43:36;;;;;;;7.32;3.20;;;21.50;99.90;;;;;;6296192;22;20010;-75
2021/08/07 07:46:03;;;;;;;7.55;3.42;;;21.40;99.90;;;;;;6295814;22;20011;-74
2021/08/07 07:48:29;;;;;;;5.90;3.58;;;21.30;99.90;;;;;;6295547;22;20006;-74
2021/08/07 07:50:54;;;;;;;7.32;4.28;;;21.30;99.90;;;;;;6295371;22;20003;-74
2021/08/07 07:53:20;;;;;;;8.65;3.97;;;21.40;99.90;;;;;;6295093;22;20003;-75
2021/08/07 07:55:46;;;;;;;6.28;3.92;;;21.40;99.90;;;;;;6293925;22;20136;-74
2021/08/07 07:58:31;;;;;;;7.60;4.00;;;21.40;99.90;;;;;;6293618;22;20031;-74
2021/08/07 08:00:56;;;;;;;;;;;21.50;99.90;;;;;;6296680;22;20034;-74
2021/08/07 08:03:22;;;;;;;8.63;3.95;;;21.70;99.90;;;;;;6295938;22;20408;-74
2021/08/07 08:05:48;;;;;;;8.20;3.53;;;21.80;99.90;;;;;;6295542;22;20014;-74
2021/08/07 08:08:14;;;;;;;6.63;3.40;;;21.80;99.90;;;;;;6296837;22;20010;-74
2021/08/07 08:10:41;;;;;;;12.15;3.80;;;21.90;99.90;;;;;;6297922;22;20006;-74
2021/08/07 08:13:07;;;;;;;7.57;4.05;;;21.90;99.90;;;;;;6297654;22;20088;-74
2021/08/07 08:15:37;;;;;;;9.25;4.70;;;21.70;99.90;;;;;;6297123;22;20007;-74
2021/08/07 08:18:07;;;;;;;10.80;4.30;;;21.70;99.90;;;;;;6297546;22;20003;-75
2021/08/07 08:20:33;;;;;;;8.25;3.72;;;21.90;99.90;;;;;;6296968;22;20033;-74
2021/08/07 08:22:59;;;;;;;6.35;4.05;;;21.90;99.90;;;;;;6297237;22;20031;-75
2021/08/07 08:25:25;;;;;;;6.50;3.88;;;22.00;99.90;;;;;;6295622;22;20036;-74
2021/08/07 08:27:51;;;;;;;5.55;3.30;;;22.00;99.90;;;;;;6297041;22;20011;-74
2021/08/07 08:30:17;;;;;;;10.43;4.40;;;22.00;99.90;;;;;;6296007;22;20064;-75
2021/08/07 08:32:43;;;;;;;6.97;3.60;;;22.20;99.90;;;;;;6297710;22;20007;-74
2021/08/07 08:35:10;;;;;;;9.27;4.78;;;22.90;99.90;;;;;;6295118;22;20461;-75
2021/08/07 08:37:36;;;;;;;5.85;3.42;;;22.50;99.90;;;;;;6287076;22;20078;-74
2021/08/07 08:40:01;;;;;;;7.68;3.85;;;22.40;99.90;;;;;;6281694;22;20357;-74
2021/08/07 08:42:27;;;;;;;6.47;3.80;;;22.90;99.90;;;;;;6279531;22;20003;-75
2021/08/07 08:44:53;;;;;;;5.95;3.78;;;23.00;99.90;;;;;;6279614;22;20011;-74
2021/08/07 08:47:19;;;;;;;8.82;4.72;;;22.80;99.90;;;;;;6280397;22;20014;-74
2021/08/07 08:49:45;;;;;;;6.75;3.80;;;22.70;99.90;;;;;;6281355;22;20530;-74
2021/08/07 08:52:13;;;;;;;8.13;4.22;;;22.70;99.90;;;;;;6280713;22;20010;-74
2021/08/07 08:54:41;;;;;;;7.88;3.80;;;23.10;99.90;;;;;;6282001;22;20007;-74
2021/08/07 08:57:07;;;;;;;4.80;3.38;;;23.20;99.90;;;;;;6282129;22;20206;-74
2021/08/07 08:59:33;;;;;;;5.63;3.47;;;23.30;99.90;;;;;;6282101;22;20604;-74
2021/08/07 09:01:58;;;;;;;5.35;3.50;;;23.20;99.90;;;;;;6283857;22;20003;-74
2021/08/07 09:04:25;;;;;;;8.60;4.20;;;23.30;99.90;;;;;;6282952;22;20329;-74
2021/08/07 09:06:51;;;;;;;6.03;4.35;;;23.30;99.90;;;;;;6282383;22;20026;-76
2021/08/07 09:09:33;;;;;;;8.90;3.83;;;23.20;99.90;;;;;;6279906;22;20034;-75
2021/08/07 09:11:58;;;;;;;8.48;4.45;;;22.90;99.90;;;;;;6287322;22;20501;-75
2021/08/07 09:14:30;;;;;;;7.68;4.10;;;22.90;99.90;;;;;;6295646;22;19999;-76
2021/08/07 09:16:58;;;;;;;9.38;3.90;;;23.00;99.90;;;;;;6288909;22;20791;-75
2021/08/07 09:19:27;;;;;;;7.88;3.75;;;23.00;99.90;;;;;;6280424;22;20226;-75
2021/08/07 09:22:09;;;;;;;19.45;4.32;;;23.10;99.90;;;;;;6284298;22;20031;-75
2021/08/07 09:24:54;;;;;;;5.13;3.85;;;23.10;99.90;;;;;;6292219;22;20412;-75
2021/08/07 09:27:28;;;;;;;7.30;4.50;;;23.20;99.90;;;;;;6294342;22;20010;-75
2021/08/07 09:29:54;;;;;;;6.70;3.35;;;23.20;99.90;;;;;;6294978;22;20007;-75
2021/08/07 09:32:20;;;;;;;6.00;3.50;;;23.00;99.90;;;;;;6293973;22;20004;-75
2021/08/07 09:35:06;;;;;;;5.43;3.30;;;22.90;99.90;;;;;;6294081;22;20052;-75
2021/08/07 09:37:31;;;;;;;6.70;4.50;;;22.80;99.90;;;;;;6293967;22;20118;-75
2021/08/07 09:40:00;;;;;;;11.65;7.07;;;23.10;99.90;;;;;;6293891;22;20433;-75
2021/08/07 09:42:28;;;;;;;9.65;5.95;;;23.10;99.90;;;;;;6293768;22;19999;-75
2021/08/07 09:45:06;;;;;;;7.72;3.40;;;22.90;99.90;;;;;;6294523;22;20471;-75
2021/08/07 09:47:32;;;;;;;7.35;4.18;;;22.80;99.90;;;;;;6296876;22;20007;-75
2021/08/07 09:50:00;;;;;;;6.82;4.00;;;23.00;99.90;;;;;;6295939;22;20532;-75
2021/08/07 09:52:38;;;;;;;6.10;4.22;;;23.00;99.90;;;;;;6297003;22;20048;-75
2021/08/07 09:55:04;;;;;;;8.48;6.13;;;23.00;99.90;;;;;;6295211;22;19999;-75
2021/08/07 09:57:30;;;;;;;7.82;4.03;;;23.10;99.90;;;;;;6295075;22;20092;-75
2021/08/07 09:59:56;;;;;;;4.68;3.00;;;23.10;99.90;;;;;;6295800;22;20060;-75
2021/08/07 10:02:31;;;;;;;8.15;4.32;;;23.10;99.90;;;;;;6294540;22;20003;-75
2021/08/07 10:04:58;;;;;;;6.47;4.20;;;23.20;99.90;;;;;;6292296;22;20011;-75
2021/08/07 10:07:24;;;;;;;5.28;3.95;;;23.10;99.90;;;;;;6293644;22;20321;-75
2021/08/07 10:09:50;;;;;;;6.05;4.70;;;23.00;99.90;;;;;;6295214;22;20033;-75
2021/08/07 10:12:16;;;;;;;6.65;4.50;;;23.10;99.90;;;;;;6293952;22;20075;-75
2021/08/07 10:14:43;;;;;;;6.95;4.13;;;23.30;99.90;;;;;;6294995;22;20131;-75
2021/08/07 10:17:13;;;;;;;6.20;3.00;;;23.30;99.90;;;;;;6293940;22;20133;-75
2021/08/07 10:19:39;;;;;;;6.07;2.88;;;23.60;99.90;;;;;;6296787;22;20010;-75
2021/08/07 10:22:07;;;;;;;9.90;3.50;;;23.60;99.90;;;;;;6294143;22;20442;-75
2021/08/07 10:24:37;;;;;;;5.35;2.83;;;23.80;99.90;;;;;;6267088;22;20023;-75
2021/08/07 10:27:04;;;;;;;10.50;2.92;;;24.00;99.90;;;;;;6293552;22;20014;-75
2021/08/07 10:29:45;;;;;;;6.35;3.47;;;24.30;99.90;;;;;;6294345;22;20005;-75
2021/08/07 10:32:14;;;;;;;5.68;2.72;;;24.30;99.90;;;;;;6294169;22;20094;-75
2021/08/07 10:34:45;;;;;;;6.57;2.97;;;24.30;98.70;;;;;;6294365;22;20007;-75
2021/08/07 10:37:12;;;;;;;5.28;2.90;;;25.00;99.40;;;;;;6295874;22;20003;-75
2021/08/07 10:39:38;;;;;;;7.40;3.47;;;25.20;98.30;;;;;;6297265;22;20049;-76
2021/08/07 10:42:05;;;;;;;6.50;2.40;;;24.90;98.30;;;;;;6295621;22;20003;-75
2021/08/07 10:44:34;;;;;;;6.65;3.42;;;24.80;98.30;;;;;;6296631;22;20088;-77
2021/08/07 10:47:00;;;;;;;5.47;2.50;;;25.30;98.80;;;;;;6295267;22;20080;-75
2021/08/07 10:49:34;;;;;;;8.82;3.10;;;26.10;98.00;;;;;;6294175;22;20576;-75
2021/08/07 10:52:00;;;;;;;7.55;2.85;;;26.40;97.70;;;;;;6293628;22;20003;-75
2021/08/07 10:54:25;;;;;;;7.72;2.65;;;26.40;97.30;;;;;;6292731;22;20014;-75
2021/08/07 10:56:51;;;;;;;7.72;2.40;;;26.50;97.30;;;;;;6292160;22;20003;-75
2021/08/07 10:59:20;;;;;;;4.57;2.63;;;26.80;96.70;;;;;;6292767;22;20533;-75
2021/08/07 11:01:58;;;;;;;9.40;2.53;;;27.00;96.30;;;;;;6293017;22;19999;-75
2021/08/07 11:04:28;;;;;;;7.05;2.72;;;27.20;96.70;;;;;;6290406;22;20011;-76
2021/08/07 11:07:03;;;;;;;7.32;2.60;;;27.20;96.80;;;;;;6291706;22;20010;-76
2021/08/07 11:09:40;;;;;;;6.72;2.50;;;27.40;95.50;;;;;;6293400;22;20120;-75
2021/08/07 11:12:06;;;;;;;6.28;2.33;;;27.50;95.30;;;;;;6294531;22;20086;-75
2021/08/07 11:14:35;;;;;;;5.72;2.50;;;27.30;96.10;;;;;;6293080;22;20038;-78
2021/08/07 11:17:06;;;;;;;4.88;2.75;;;27.30;95.00;;;;;;6292960;22;20061;-75
2021/08/07 11:19:48;;;;;;;4.97;2.70;;;27.20;94.20;;;;;;6289233;22;20073;-74
2021/08/07 11:22:41;;;;;;;6.50;2.40;;;27.70;95.10;;;;;;6293235;22;20026;-74
2021/08/07 11:25:18;;;;;;;6.88;2.63;;;28.20;95.30;;;;;;6292664;22;20327;-73
2021/08/07 11:27:47;;;;;;;6.35;1.90;;;28.40;93.70;;;;;;6289523;22;20010;-75
2021/08/07 11:30:34;;;;;;;5.45;2.22;;;28.20;93.30;;;;;;6292904;22;20007;-74
2021/08/07 11:33:03;;;;;;;9.25;2.88;;;28.20;93.50;;;;;;6294107;22;20004;-73
2021/08/07 11:35:35;;;;;;;5.88;2.38;;;28.50;93.60;;;;;;6294461;22;20007;-76
2021/08/07 11:38:12;;;;;;;5.55;2.38;;;28.60;92.80;;;;;;6289483;22;20003;-74
2021/08/07 11:40:44;;;;;;;4.88;2.10;;;28.70;92.70;;;;;;6294997;22;20014;-76
2021/08/07 11:43:14;;;;;;;5.32;2.38;;;28.70;92.20;;;;;;6294551;22;20003;-78
2021/08/07 11:45:41;;;;;;;4.10;1.98;;;28.50;92.20;;;;;;6295753;22;20062;-75
2021/08/07 11:48:07;;;;;;;7.10;2.38;;;28.70;93.00;;;;;;6294753;22;20003;-75
2021/08/07 11:50:33;;;;;;;6.05;2.30;;;28.60;93.00;;;;;;6294227;22;20007;-75
2021/08/07 11:52:59;;;;;;;6.47;2.47;;;28.70;93.10;;;;;;6266550;22;20011;-74
2021/08/07 11:55:34;;;;;;;8.45;2.25;;;28.80;93.70;;;;;;6295052;22;19996;-78
2021/08/07 11:58:08;;;;;;;7.28;2.70;;;28.50;92.10;;;;;;6291755;22;20014;-76
2021/08/07 12:00:36;;;;;;;5.53;2.20;;;28.50;92.90;;;;;;6294685;22;20011;-76
2021/08/07 12:03:07;;;;;;;5.97;2.17;;;28.50;92.80;;;;;;6296155;22;20007;-74
2021/08/07 12:05:34;;;;;;;4.70;2.17;;;28.70;92.70;;;;;;6294373;22;20007;-77
2021/08/07 12:08:04;;;;;;;6.60;2.35;;;28.90;91.80;;;;;;6292339;22;20367;-75
2021/08/07 12:10:31;;;;;;;5.22;2.20;;;28.90;91.90;;;;;;6292027;22;20071;-77
2021/08/07 12:12:58;;;;;;;5.90;2.75;;;29.00;92.30;;;;;;6295323;22;20008;-80
2021/08/07 12:15:25;;;;;;;4.93;2.47;;;28.90;92.10;;;;;;6294317;22;20010;-76
2021/08/07 12:17:51;;;;;;;7.38;2.80;;;28.90;92.20;;;;;;6293631;22;20010;-77
2021/08/07 12:20:17;;;;;;;4.63;2.05;;;28.80;92.40;;;;;;6293188;22;20003;-75
2021/08/07 12:22:57;;;;;;;5.68;2.53;;;29.10;92.40;;;;;;6296264;22;20025;-78
2021/08/07 12:25:23;;;;;;;5.50;2.33;;;28.80;91.90;;;;;;6293887;22;20045;-78
2021/08/07 12:28:08;;;;;;;8.23;2.80;;;28.90;92.60;;;;;;6295614;22;20428;-77
2021/08/07 12:30:35;;;;;;;8.02;2.67;;;28.70;93.40;;;;;;6297436;22;20561;-77
2021/08/07 12:33:20;;;;;;;5.80;2.75;;;28.70;93.40;;;;;;6296314;22;20007;-77
2021/08/07 12:35:46;;;;;;;6.15;2.67;;;28.70;93.50;;;;;;6296952;22;20003;-78
2021/08/07 12:38:20;;;;;;;6.65;2.92;;;28.50;93.40;;;;;;6295555;22;20010;-78
2021/08/07 12:40:48;;;;;;;6.47;2.40;;;28.40;92.80;;;;;;6296373;22;20009;-78
2021/08/07 12:43:15;;;;;;;4.88;2.58;;;28.50;93.00;;;;;;6296912;22;20010;-77
2021/08/07 12:45:41;;;;;;;6.70;2.70;;;28.40;92.70;;;;;;6296193;22;20090;-78
2021/08/07 12:48:07;;;;;;;6.20;2.90;;;28.50;93.20;;;;;;6295164;22;20006;-78
2021/08/07 12:50:32;;;;;;;8.65;2.50;;;28.20;93.00;;;;;;6295865;22;20007;-77